createdAt,value
2019-01-10T00:01:01.316Z,86.30
2019-01-10T00:03:33.913Z,86.19
2019-01-10T00:06:07.681Z,85.63
2019-01-10T00:08:40.321Z,86.04
2019-01-10T00:11:16.533Z,86.45
2019-01-10T00:13:49.226Z,86.82
2019-01-10T00:16:21.794Z,87.27
2019-01-10T00:18:54.377Z,87.18
2019-01-10T00:21:27.159Z,86.82
2019-01-10T00:23:59.850Z,87.23
2019-01-10T00:26:32.796Z,87.38
2019-01-10T00:29:05.466Z,86.88
2019-01-10T00:31:38.157Z,86.47
2019-01-10T00:34:10.880Z,86.64
2019-01-10T00:36:43.577Z,86.78
2019-01-10T00:39:16.160Z,86.52
2019-01-10T00:41:48.814Z,86.86
2019-01-10T00:44:21.399Z,86.91
2019-01-10T00:46:53.971Z,87.22
2019-01-10T00:49:26.602Z,87.51
2019-01-10T00:51:59.208Z,87.87
2019-01-10T00:54:31.812Z,87.91
2019-01-10T00:57:04.538Z,87.80
2019-01-10T00:59:40.535Z,88.42
2019-01-10T01:02:13.174Z,88.84
2019-01-10T01:04:45.899Z,88.99
2019-01-10T01:07:18.612Z,88.93
2019-01-10T01:09:51.291Z,88.96
2019-01-10T01:12:23.960Z,89.15
2019-01-10T01:14:56.640Z,89.12
2019-01-10T01:17:29.278Z,88.99
2019-01-10T01:20:01.854Z,88.85
2019-01-10T01:22:34.424Z,88.47
2019-01-10T01:25:08.618Z,88.42
2019-01-10T01:27:41.318Z,88.16
2019-01-10T01:30:17.950Z,87.96
2019-01-10T01:32:50.628Z,87.65
2019-01-10T01:35:23.186Z,87.32
2019-01-10T01:37:56.017Z,87.21
2019-01-10T01:40:28.735Z,86.56
2019-01-10T01:43:07.317Z,86.11
2019-01-10T01:45:35.587Z,86.05
2019-01-10T01:48:08.251Z,86.62
2019-01-10T01:50:40.920Z,86.86
2019-01-10T01:53:13.543Z,85.55
2019-01-10T01:55:46.150Z,85.98
2019-01-10T01:58:18.883Z,85.72
2019-01-10T02:00:50.708Z,86.40
2019-01-10T02:03:23.346Z,86.89
2019-01-10T02:05:55.894Z,87.54
2019-01-10T02:08:28.479Z,87.38
2019-01-10T02:11:01.078Z,87.65
2019-01-10T02:13:33.681Z,87.55
2019-01-10T02:16:06.388Z,87.09
2019-01-10T02:18:39.017Z,87.53
2019-01-10T02:21:11.630Z,87.68
2019-01-10T02:23:44.239Z,87.74
2019-01-10T02:26:16.860Z,87.75
2019-01-10T02:28:49.434Z,87.64
2019-01-10T02:31:22.109Z,87.26
2019-01-10T02:33:54.701Z,87.75
2019-01-10T02:36:27.286Z,87.80
2019-01-10T02:38:59.908Z,87.80
2019-01-10T02:41:32.431Z,87.87
2019-01-10T02:44:05.224Z,87.96
2019-01-10T02:46:37.782Z,87.33
2019-01-10T02:49:10.423Z,87.29
2019-01-10T02:51:42.976Z,87.04
2019-01-10T02:54:15.592Z,87.06
2019-01-10T02:56:48.221Z,86.96
2019-01-10T02:59:20.852Z,87.51
2019-01-10T03:01:53.439Z,87.59
2019-01-10T03:04:26.078Z,88.03
2019-01-10T03:06:58.708Z,87.62
2019-01-10T03:09:31.292Z,87.93
2019-01-10T03:12:04.051Z,88.22
2019-01-10T03:14:36.700Z,88.15
2019-01-10T03:17:09.293Z,88.73
2019-01-10T03:19:41.869Z,88.99
2019-01-10T03:22:14.482Z,89.10
2019-01-10T03:24:47.085Z,89.20
2019-01-10T03:27:19.649Z,89.49
2019-01-10T03:29:52.363Z,89.09
2019-01-10T03:32:25.025Z,89.07
2019-01-10T03:34:57.719Z,89.04
2019-01-10T03:37:30.381Z,89.45
2019-01-10T03:40:03.207Z,89.33
2019-01-10T03:42:35.878Z,89.39
2019-01-10T03:45:11.976Z,89.25
2019-01-10T03:47:44.613Z,89.22
2019-01-10T03:50:17.793Z,89.26
2019-01-10T03:52:50.375Z,89.20
2019-01-10T03:55:23.076Z,89.43
2019-01-10T03:57:55.742Z,89.50
2019-01-10T04:00:28.328Z,89.47
2019-01-10T04:03:00.977Z,89.36
2019-01-10T04:05:35.636Z,89.39
2019-01-10T04:08:08.265Z,89.08
2019-01-10T04:10:40.854Z,87.97
2019-01-10T04:13:13.503Z,87.92
2019-01-10T04:15:46.112Z,88.89
2019-01-10T04:18:18.948Z,89.18
2019-01-10T04:20:51.546Z,88.82
2019-01-10T04:23:24.165Z,88.60
2019-01-10T04:25:56.849Z,87.91
2019-01-10T04:28:29.476Z,88.18
2019-01-10T04:31:02.319Z,87.78
2019-01-10T04:33:35.036Z,88.06
2019-01-10T04:36:07.715Z,87.95
2019-01-10T04:38:40.349Z,87.99
2019-01-10T04:41:12.984Z,87.67
2019-01-10T04:43:45.549Z,87.53
2019-01-10T04:46:18.238Z,87.42
2019-01-10T04:48:50.851Z,86.91
2019-01-10T04:51:23.441Z,86.97
2019-01-10T04:53:56.087Z,87.05
2019-01-10T04:56:28.663Z,86.73
2019-01-10T04:59:01.294Z,85.28
2019-01-10T05:01:33.873Z,86.30
2019-01-10T05:04:06.574Z,86.59
2019-01-10T05:06:39.151Z,86.77
2019-01-10T05:09:11.777Z,86.61
2019-01-10T05:11:44.519Z,86.60
2019-01-10T05:14:17.172Z,86.17
2019-01-10T05:16:50.786Z,86.61
2019-01-10T05:19:23.388Z,86.12
2019-01-10T05:21:56.122Z,85.75
2019-01-10T05:24:28.725Z,85.92
2019-01-10T05:27:01.332Z,86.14
2019-01-10T05:29:33.906Z,85.68
2019-01-10T05:32:06.733Z,86.32
2019-01-10T05:34:39.320Z,86.11
2019-01-10T05:37:11.990Z,85.83
2019-01-10T05:39:47.662Z,86.11
2019-01-10T05:42:19.412Z,85.57
2019-01-10T05:44:51.997Z,85.44
2019-01-10T05:47:24.657Z,85.45
2019-01-10T05:49:57.292Z,85.35
2019-01-10T05:52:29.902Z,85.82
2019-01-10T05:55:03.415Z,85.96
2019-01-10T05:57:35.933Z,86.08
2019-01-10T06:00:13.947Z,85.42
2019-01-10T06:02:46.527Z,85.73
2019-01-10T06:05:19.140Z,86.03
2019-01-10T06:07:51.835Z,85.98
2019-01-10T06:10:27.798Z,85.78
2019-01-10T06:13:00.711Z,85.78
2019-01-10T06:15:33.355Z,85.69
2019-01-10T06:18:06.985Z,85.51
2019-01-10T06:20:39.661Z,85.68
2019-01-10T06:23:12.315Z,85.57
2019-01-10T06:25:45.019Z,85.10
2019-01-10T06:28:17.635Z,85.08
2019-01-10T06:30:50.339Z,85.36
2019-01-10T06:33:22.936Z,85.52
2019-01-10T06:35:55.571Z,84.82
2019-01-10T06:38:28.146Z,84.68
2019-01-10T06:41:00.887Z,84.96
2019-01-10T06:43:33.528Z,85.22
2019-01-10T06:46:06.222Z,85.00
2019-01-10T06:48:38.862Z,84.91
2019-01-10T06:51:13.651Z,85.16
2019-01-10T06:53:48.416Z,85.71
2019-01-10T06:56:21.049Z,85.67
2019-01-10T06:58:53.653Z,86.11
2019-01-10T07:01:26.289Z,86.29
2019-01-10T07:03:58.069Z,86.47
2019-01-10T07:06:30.656Z,86.27
2019-01-10T07:09:03.279Z,85.97
2019-01-10T07:11:35.920Z,85.99
2019-01-10T07:14:08.849Z,86.06
2019-01-10T07:16:41.936Z,86.42
2019-01-10T07:19:15.984Z,86.51
2019-01-10T07:21:57.592Z,86.41
2019-01-10T07:24:30.210Z,86.44
2019-01-10T07:27:02.763Z,86.23
2019-01-10T07:29:35.338Z,86.53
2019-01-10T07:32:07.915Z,86.58
2019-01-10T07:34:40.582Z,87.25
2019-01-10T07:37:13.257Z,87.81
2019-01-10T07:39:45.875Z,87.34
2019-01-10T07:42:18.468Z,86.73
2019-01-10T07:44:51.790Z,86.88
2019-01-10T07:47:29.005Z,86.45
2019-01-10T07:50:02.758Z,85.38
2019-01-10T07:52:35.342Z,83.85
2019-01-10T07:55:08.522Z,83.24
2019-01-10T07:57:41.173Z,83.51
2019-01-10T08:00:16.228Z,83.94
2019-01-10T08:02:48.862Z,83.88
2019-01-10T08:05:21.484Z,84.04
2019-01-10T08:07:54.080Z,84.25
2019-01-10T08:10:26.773Z,83.78
2019-01-10T08:12:59.940Z,83.80
2019-01-10T08:15:32.669Z,83.39
2019-01-10T08:18:06.254Z,84.24
2019-01-10T08:20:39.056Z,84.88
2019-01-10T08:23:11.707Z,84.63
2019-01-10T08:25:49.762Z,84.29
2019-01-10T08:28:22.314Z,83.44
2019-01-10T08:30:54.964Z,82.18
2019-01-10T08:33:27.582Z,81.17
2019-01-10T08:36:00.186Z,80.78
2019-01-10T08:38:32.779Z,80.47
2019-01-10T08:41:05.456Z,79.40
2019-01-10T08:43:38.157Z,79.58
2019-01-10T08:46:11.124Z,79.34
2019-01-10T08:48:43.695Z,79.31
2019-01-10T08:51:16.324Z,80.76
2019-01-10T08:53:53.734Z,82.48
2019-01-10T08:56:23.272Z,81.71
2019-01-10T08:58:56.027Z,80.50
2019-01-10T09:01:28.777Z,80.94
2019-01-10T09:04:01.445Z,82.38
2019-01-10T09:06:34.120Z,80.66
2019-01-10T09:09:10.194Z,79.85
2019-01-10T09:11:45.608Z,78.99
2019-01-10T09:14:20.248Z,79.45
2019-01-10T09:16:52.880Z,79.31
2019-01-10T09:19:25.684Z,79.84
2019-01-10T09:21:58.299Z,80.67
2019-01-10T09:24:31.195Z,79.86
2019-01-10T09:27:03.848Z,80.26
2019-01-10T09:29:36.596Z,79.35
2019-01-10T09:32:09.399Z,79.15
2019-01-10T09:34:42.060Z,79.40
2019-01-10T09:37:15.206Z,79.70
2019-01-10T09:39:47.960Z,79.62
2019-01-10T09:42:20.753Z,79.81
2019-01-10T09:44:53.389Z,80.00
2019-01-10T09:47:26.105Z,79.38
2019-01-10T09:49:58.654Z,79.36
2019-01-10T09:52:31.482Z,79.58
2019-01-10T09:55:04.093Z,79.55
2019-01-10T09:57:36.652Z,79.60
2019-01-10T10:00:15.738Z,79.40
2019-01-10T10:02:48.423Z,80.01
2019-01-10T10:05:21.186Z,79.03
2019-01-10T10:07:54.299Z,78.19
2019-01-10T10:10:26.961Z,78.12
2019-01-10T10:12:59.566Z,76.58
2019-01-10T10:15:32.366Z,74.84
2019-01-10T10:18:04.913Z,74.74
2019-01-10T10:20:37.561Z,74.69
2019-01-10T10:23:10.208Z,75.65
2019-01-10T10:25:42.854Z,75.86
2019-01-10T10:28:15.415Z,74.89
2019-01-10T10:30:48.056Z,76.44
2019-01-10T10:33:20.759Z,76.31
2019-01-10T10:35:53.429Z,76.05
2019-01-10T10:38:26.052Z,75.01
2019-01-10T10:40:59.225Z,76.56
2019-01-10T10:43:31.933Z,78.37
2019-01-10T10:46:05.168Z,78.42
2019-01-10T10:48:37.814Z,78.55
2019-01-10T10:51:10.809Z,79.28
2019-01-10T10:53:43.410Z,78.43
2019-01-10T10:56:16.015Z,78.55
2019-01-10T10:58:49.066Z,77.94
2019-01-10T11:01:21.755Z,76.68
2019-01-10T11:03:54.832Z,75.29
2019-01-10T11:06:27.506Z,75.60
2019-01-10T11:09:09.061Z,76.18
2019-01-10T11:11:35.806Z,73.57
2019-01-10T11:14:08.440Z,72.57
2019-01-10T11:16:40.968Z,74.57
2019-01-10T11:19:13.626Z,74.39
2019-01-10T11:21:46.231Z,72.98
2019-01-10T11:24:18.871Z,74.32
2019-01-10T11:26:53.448Z,74.71
2019-01-10T11:29:25.950Z,74.14
2019-01-10T11:31:59.685Z,75.14
2019-01-10T11:34:32.440Z,75.76
2019-01-10T11:37:05.114Z,74.74
2019-01-10T11:39:37.750Z,74.31
2019-01-10T11:42:10.617Z,75.14
2019-01-10T11:44:43.218Z,75.43
2019-01-10T11:47:15.945Z,73.96
2019-01-10T11:49:48.724Z,73.73
2019-01-10T11:52:21.459Z,73.87
2019-01-10T11:54:54.259Z,75.55
2019-01-10T11:57:26.937Z,76.22
2019-01-10T11:59:59.719Z,77.39
2019-01-10T12:02:36.434Z,79.61
2019-01-10T12:05:09.075Z,77.68
2019-01-10T12:07:41.700Z,77.64
2019-01-10T12:10:16.550Z,76.63
2019-01-10T12:12:49.241Z,77.89
2019-01-10T12:15:22.092Z,77.85
2019-01-10T12:17:54.328Z,78.70
2019-01-10T12:20:27.043Z,77.73
2019-01-10T12:22:59.710Z,78.06
2019-01-10T12:25:32.573Z,77.72
2019-01-10T12:28:06.268Z,77.25
2019-01-10T12:30:38.914Z,79.00
2019-01-10T12:33:11.739Z,77.93
2019-01-10T12:35:44.452Z,78.28
2019-01-10T12:38:17.033Z,77.94
2019-01-10T12:40:49.749Z,77.88
2019-01-10T12:43:22.382Z,77.61
2019-01-10T12:45:55.275Z,77.20
2019-01-10T12:48:27.927Z,77.22
2019-01-10T12:51:00.523Z,77.74
2019-01-10T12:53:33.352Z,76.97
2019-01-10T12:56:05.983Z,77.95
2019-01-10T12:58:38.607Z,77.82
2019-01-10T13:01:11.493Z,76.68
2019-01-10T13:03:44.397Z,77.01
2019-01-10T13:06:17.069Z,75.72
2019-01-10T13:08:49.736Z,76.28
2019-01-10T13:11:22.727Z,79.02
2019-01-10T13:13:55.691Z,78.44
2019-01-10T13:16:28.601Z,78.61
2019-01-10T13:19:01.182Z,78.92
2019-01-10T13:21:33.737Z,79.02
2019-01-10T13:24:06.456Z,77.62
2019-01-10T13:26:39.161Z,78.63
2019-01-10T13:29:11.852Z,79.14
2019-01-10T13:31:45.236Z,78.78
2019-01-10T13:34:17.490Z,78.21
2019-01-10T13:36:50.217Z,78.76
2019-01-10T13:39:22.924Z,78.98
2019-01-10T13:41:55.686Z,78.66
2019-01-10T13:44:28.309Z,78.21
2019-01-10T13:47:00.943Z,78.21
2019-01-10T13:49:33.553Z,78.12
2019-01-10T13:52:06.208Z,78.54
2019-01-10T13:54:39.032Z,78.77
2019-01-10T13:57:14.865Z,78.43
2019-01-10T13:59:47.543Z,79.00
2019-01-10T14:02:20.206Z,78.97
2019-01-10T14:04:52.914Z,79.39
2019-01-10T14:07:25.639Z,79.23
2019-01-10T14:09:58.342Z,79.71
2019-01-10T14:12:30.994Z,80.35
2019-01-10T14:15:03.739Z,80.73
2019-01-10T14:17:36.338Z,80.81
2019-01-10T14:20:11.591Z,81.85
2019-01-10T14:22:44.185Z,82.02
2019-01-10T14:25:17.058Z,82.99
2019-01-10T14:27:49.833Z,83.07
2019-01-10T14:30:44.023Z,85.23
2019-01-10T14:33:16.789Z,84.58
2019-01-10T14:35:49.421Z,83.29
2019-01-10T14:38:22.960Z,83.09
2019-01-10T14:40:56.004Z,83.12
2019-01-10T14:43:28.673Z,82.58
2019-01-10T14:46:01.352Z,82.26
2019-01-10T14:48:33.922Z,82.35
2019-01-10T14:51:06.651Z,83.08
2019-01-10T14:53:39.355Z,82.75
2019-01-10T14:56:11.988Z,82.32
2019-01-10T14:58:44.550Z,82.41
2019-01-10T15:01:17.187Z,82.12
2019-01-10T15:03:49.755Z,82.76
2019-01-10T15:06:22.396Z,83.58
2019-01-10T15:08:54.975Z,84.00
2019-01-10T15:11:27.674Z,83.97
2019-01-10T15:14:00.257Z,83.82
2019-01-10T15:16:32.987Z,82.85
2019-01-10T15:19:05.983Z,82.79
2019-01-10T15:21:38.608Z,84.13
2019-01-10T15:24:12.263Z,84.20
2019-01-10T15:26:44.987Z,84.08
2019-01-10T15:29:17.658Z,84.05
2019-01-10T15:31:50.342Z,84.24
2019-01-10T15:34:22.922Z,84.80
2019-01-10T15:36:55.597Z,84.41
2019-01-10T15:39:28.277Z,83.84
2019-01-10T15:42:00.947Z,84.01
2019-01-10T15:44:33.576Z,85.01
2019-01-10T15:47:06.836Z,84.05
2019-01-10T15:49:39.482Z,84.70
2019-01-10T15:52:13.241Z,84.99
2019-01-10T15:54:46.162Z,84.95
2019-01-10T15:57:19.193Z,85.41
2019-01-10T15:59:51.934Z,85.17
2019-01-10T16:02:24.534Z,84.97
2019-01-10T16:04:57.132Z,85.70
2019-01-10T16:07:29.837Z,85.25
2019-01-10T16:10:02.427Z,85.38
2019-01-10T16:12:35.094Z,84.96
2019-01-10T16:15:10.804Z,85.02
2019-01-10T16:17:43.499Z,85.62
2019-01-10T16:20:17.378Z,85.80
2019-01-10T16:22:50.065Z,86.24
2019-01-10T16:25:22.658Z,86.07
2019-01-10T16:27:55.216Z,86.63
2019-01-10T16:30:31.895Z,86.51
2019-01-10T16:33:04.538Z,86.78
2019-01-10T16:35:37.187Z,86.48
2019-01-10T16:38:09.845Z,86.64
2019-01-10T16:40:42.421Z,86.70
2019-01-10T16:43:15.019Z,86.69
2019-01-10T16:45:47.941Z,86.59
2019-01-10T16:48:19.776Z,86.81
2019-01-10T16:50:52.710Z,87.15
2019-01-10T16:53:25.389Z,87.31
2019-01-10T16:55:58.090Z,86.99
2019-01-10T16:58:32.937Z,86.47
2019-01-10T17:01:05.504Z,86.36
2019-01-10T17:03:38.124Z,86.37
2019-01-10T17:06:09.938Z,86.68
2019-01-10T17:08:42.760Z,87.11
2019-01-10T17:11:15.401Z,86.92
2019-01-10T17:13:48.153Z,87.12
2019-01-10T17:16:20.741Z,86.91
2019-01-10T17:18:53.494Z,87.24
2019-01-10T17:21:26.137Z,87.34
2019-01-10T17:23:58.763Z,86.77
2019-01-10T17:32:44.411Z,85.66
2019-01-10T17:35:21.991Z,86.20
2019-01-10T17:37:54.650Z,86.26
2019-01-10T17:40:27.224Z,86.19
2019-01-10T17:43:00.134Z,86.19
2019-01-10T17:45:35.727Z,86.46
2019-01-10T17:48:11.509Z,86.26
2019-01-10T17:50:44.115Z,85.69
2019-01-10T17:53:16.730Z,86.33
2019-01-10T17:55:49.389Z,86.41
2019-01-10T17:58:22.167Z,86.18
2019-01-10T18:00:54.728Z,86.41
2019-01-10T18:03:27.326Z,86.66
2019-01-10T18:05:59.990Z,86.56
2019-01-10T18:08:32.740Z,86.57
2019-01-10T18:11:11.351Z,85.44
2019-01-10T18:13:43.928Z,85.01
2019-01-10T18:16:16.554Z,84.99
2019-01-10T18:18:49.238Z,84.86
2019-01-10T18:21:21.874Z,84.81
2019-01-10T18:23:54.651Z,84.91
2019-01-10T18:26:27.241Z,85.56
2019-01-10T18:28:59.818Z,85.27
2019-01-10T18:31:32.467Z,85.18
2019-01-10T18:34:05.237Z,84.60
2019-01-10T18:36:37.896Z,84.47
2019-01-10T18:39:10.625Z,85.41
2019-01-10T18:41:43.265Z,85.57
2019-01-10T18:44:16.018Z,85.30
2019-01-10T18:46:49.937Z,85.05
2019-01-10T18:49:22.706Z,84.56
2019-01-10T18:51:55.709Z,84.88
2019-01-10T18:54:28.606Z,85.12
2019-01-10T18:57:01.207Z,85.10
2019-01-10T18:59:33.853Z,84.43
2019-01-10T19:02:06.597Z,84.58
2019-01-10T19:04:39.228Z,83.52
2019-01-10T19:07:11.831Z,83.49
2019-01-10T19:09:44.634Z,83.80
2019-01-10T19:12:17.280Z,84.23
2019-01-10T19:14:49.900Z,84.73
2019-01-10T19:17:26.096Z,84.78
2019-01-10T19:19:56.959Z,84.00
2019-01-10T19:22:29.519Z,83.54
2019-01-10T19:25:02.098Z,83.58
2019-01-10T19:27:34.876Z,83.75
2019-01-10T19:30:14.923Z,83.37
2019-01-10T19:32:47.746Z,83.63
2019-01-10T19:35:20.493Z,83.52
2019-01-10T19:37:54.275Z,83.36
2019-01-10T19:40:26.865Z,83.34
2019-01-10T19:42:59.511Z,83.84
2019-01-10T19:45:32.139Z,84.04
2019-01-10T19:48:09.642Z,83.94
2019-01-10T19:50:39.394Z,84.09
2019-01-10T19:53:12.410Z,83.66
2019-01-10T19:55:45.057Z,83.91
2019-01-10T19:58:17.767Z,84.13
2019-01-10T20:00:55.019Z,84.29
2019-01-10T20:03:27.664Z,84.72
2019-01-10T20:06:00.375Z,85.07
2019-01-10T20:08:33.013Z,84.52
2019-01-10T20:11:05.828Z,84.57
2019-01-10T20:13:38.479Z,84.44
2019-01-10T20:16:11.237Z,83.81
2019-01-10T20:18:45.960Z,84.19
2019-01-10T20:21:18.558Z,84.57
2019-01-10T20:23:51.145Z,84.43
2019-01-10T20:26:23.797Z,84.67
2019-01-10T20:28:55.796Z,84.87
2019-01-10T20:31:28.459Z,84.15
2019-01-10T20:34:01.067Z,84.71
2019-01-10T20:36:33.755Z,84.89
2019-01-10T20:39:09.343Z,84.82
2019-01-10T20:41:41.932Z,85.09
2019-01-10T20:44:14.715Z,85.22
2019-01-10T20:46:47.377Z,85.35
2019-01-10T20:49:20.247Z,84.93
2019-01-10T20:51:52.878Z,84.64
2019-01-10T20:54:25.581Z,84.05
2019-01-10T20:56:58.275Z,84.21
2019-01-10T20:59:30.941Z,84.39
2019-01-10T21:02:03.591Z,84.53
2019-01-10T21:04:36.252Z,84.77
2019-01-10T21:07:14.291Z,83.71
2019-01-10T21:09:46.992Z,84.31
2019-01-10T21:12:19.735Z,84.39
2019-01-10T21:14:52.485Z,85.01
2019-01-10T21:17:25.213Z,84.66
2019-01-10T21:19:58.048Z,84.16
2019-01-10T21:22:30.634Z,84.66
2019-01-10T21:25:03.378Z,84.91
2019-01-10T21:27:36.165Z,85.22
2019-01-10T21:30:12.918Z,85.36
2019-01-10T21:32:46.880Z,85.54
2019-01-10T21:35:20.051Z,85.38
2019-01-10T21:37:52.734Z,85.43
2019-01-10T21:40:25.853Z,85.52
2019-01-10T21:42:58.511Z,85.79
2019-01-10T21:45:31.287Z,85.31
2019-01-10T21:48:03.977Z,86.15
2019-01-10T21:50:36.613Z,86.19
2019-01-10T21:53:09.227Z,85.83
2019-01-10T21:55:41.846Z,85.80
2019-01-10T21:58:14.543Z,85.86
2019-01-10T22:00:47.186Z,85.46
2019-01-10T22:03:19.914Z,85.42
2019-01-10T22:05:52.788Z,85.09
2019-01-10T22:08:25.738Z,83.97
2019-01-10T22:11:01.266Z,84.21
2019-01-10T22:13:32.697Z,84.43
2019-01-10T22:16:05.523Z,84.62
2019-01-10T22:18:41.426Z,84.02
2019-01-10T22:21:12.417Z,84.10
2019-01-10T22:23:45.480Z,84.37
2019-01-10T22:26:18.132Z,83.85
2019-01-10T22:28:50.721Z,83.68
2019-01-10T22:31:23.428Z,83.80
2019-01-10T22:33:56.077Z,84.05
2019-01-10T22:36:27.967Z,83.89
2019-01-10T22:39:00.584Z,84.33
2019-01-10T22:41:33.152Z,83.77
2019-01-10T22:44:05.786Z,83.84
2019-01-10T22:46:38.589Z,84.33
2019-01-10T22:49:11.193Z,84.46
2019-01-10T22:51:43.832Z,84.39
2019-01-10T22:54:16.447Z,84.64
2019-01-10T22:56:49.059Z,84.17
2019-01-10T22:59:22.023Z,84.29
2019-01-10T23:01:59.327Z,83.91
2019-01-10T23:04:38.313Z,84.41
2019-01-10T23:07:22.053Z,84.63
2019-01-10T23:10:03.026Z,84.26
2019-01-10T23:12:36.912Z,84.07
2019-01-10T23:15:33.629Z,84.27
2019-01-10T23:18:07.871Z,84.65
2019-01-10T23:20:39.875Z,84.36
2019-01-10T23:23:13.813Z,84.55
2019-01-10T23:25:52.978Z,84.15
2019-01-10T23:28:25.818Z,84.53
2019-01-10T23:31:00.910Z,85.02
2019-01-10T23:33:33.655Z,84.59
2019-01-10T23:36:07.369Z,85.03
2019-01-10T23:38:39.969Z,85.32
2019-01-10T23:41:12.582Z,85.60
2019-01-10T23:43:45.224Z,85.42
2019-01-10T23:46:17.827Z,85.18
2019-01-10T23:48:50.427Z,85.08
2019-01-10T23:51:23.061Z,85.27
2019-01-10T23:53:55.601Z,85.41
2019-01-10T23:56:28.227Z,85.43
2019-01-10T23:59:00.806Z,85.20
